sensor_id;sensor_type;location;lat;lon;timestamp;temperature;humidity
24618;DHT22;12762;51.730;5.356;2023-04-08T00:01:31;9.90;86.70
24618;DHT22;12762;51.730;5.356;2023-04-08T00:03:59;9.90;86.70
24618;DHT22;12762;51.730;5.356;2023-04-08T00:06:26;9.90;86.70
24618;DHT22;12762;51.730;5.356;2023-04-08T00:08:53;9.90;86.70
24618;DHT22;12762;51.730;5.356;2023-04-08T00:11:29;9.90;86.80
24618;DHT22;12762;51.730;5.356;2023-04-08T00:13:56;9.90;86.80
24618;DHT22;12762;51.730;5.356;2023-04-08T00:16:23;10.00;85.90
24618;DHT22;12762;51.730;5.356;2023-04-08T00:18:50;10.00;85.90
24618;DHT22;12762;51.730;5.356;2023-04-08T00:21:17;9.90;87.00
24618;DHT22;12762;51.730;5.356;2023-04-08T00:23:46;10.00;86.10
24618;DHT22;12762;51.730;5.356;2023-04-08T00:26:16;10.00;86.10
24618;DHT22;12762;51.730;5.356;2023-04-08T00:28:51;10.00;86.10
24618;DHT22;12762;51.730;5.356;2023-04-08T00:31:18;10.00;86.20
24618;DHT22;12762;51.730;5.356;2023-04-08T00:33:46;10.00;86.20
24618;DHT22;12762;51.730;5.356;2023-04-08T00:36:15;10.00;86.30
24618;DHT22;12762;51.730;5.356;2023-04-08T00:38:43;10.00;87.20
24618;DHT22;12762;51.730;5.356;2023-04-08T00:41:12;10.00;86.40
24618;DHT22;12762;51.730;5.356;2023-04-08T00:43:39;10.00;86.40
24618;DHT22;12762;51.730;5.356;2023-04-08T00:46:06;10.00;86.50
24618;DHT22;12762;51.730;5.356;2023-04-08T00:48:33;10.00;86.50
24618;DHT22;12762;51.730;5.356;2023-04-08T00:51:00;10.00;86.60
24618;DHT22;12762;51.730;5.356;2023-04-08T00:53:29;10.00;86.70
24618;DHT22;12762;51.730;5.356;2023-04-08T00:55:56;10.00;86.70
24618;DHT22;12762;51.730;5.356;2023-04-08T00:58:25;10.00;86.70
24618;DHT22;12762;51.730;5.356;2023-04-08T01:01:13;10.00;86.80
24618;DHT22;12762;51.730;5.356;2023-04-08T01:04:11;10.00;86.60
24618;DHT22;12762;51.730;5.356;2023-04-08T01:06:50;10.00;86.50
24618;DHT22;12762;51.730;5.356;2023-04-08T01:09:22;10.00;86.80
24618;DHT22;12762;51.730;5.356;2023-04-08T01:11:51;10.00;86.90
24618;DHT22;12762;51.730;5.356;2023-04-08T01:14:20;10.00;86.90
24618;DHT22;12762;51.730;5.356;2023-04-08T01:16:49;10.00;86.90
24618;DHT22;12762;51.730;5.356;2023-04-08T01:19:32;9.90;87.90
24618;DHT22;12762;51.730;5.356;2023-04-08T01:24:46;9.90;87.90
24618;DHT22;12762;51.730;5.356;2023-04-08T01:27:15;9.90;88.10
24618;DHT22;12762;51.730;5.356;2023-04-08T01:29:43;9.90;88.20
24618;DHT22;12762;51.730;5.356;2023-04-08T01:32:11;9.90;88.20
24618;DHT22;12762;51.730;5.356;2023-04-08T01:34:40;9.80;88.10
24618;DHT22;12762;51.730;5.356;2023-04-08T01:37:07;9.80;88.20
24618;DHT22;12762;51.730;5.356;2023-04-08T01:39:34;9.80;88.20
24618;DHT22;12762;51.730;5.356;2023-04-08T01:42:02;9.80;88.20
24618;DHT22;12762;51.730;5.356;2023-04-08T01:44:30;9.80;88.30
24618;DHT22;12762;51.730;5.356;2023-04-08T01:47:02;9.80;88.40
24618;DHT22;12762;51.730;5.356;2023-04-08T01:49:30;9.80;88.40
24618;DHT22;12762;51.730;5.356;2023-04-08T01:51:59;9.80;88.40
24618;DHT22;12762;51.730;5.356;2023-04-08T01:54:27;9.70;88.30
24618;DHT22;12762;51.730;5.356;2023-04-08T01:56:57;9.70;88.30
24618;DHT22;12762;51.730;5.356;2023-04-08T01:59:28;9.70;88.40
24618;DHT22;12762;51.730;5.356;2023-04-08T02:01:56;9.70;88.40
24618;DHT22;12762;51.730;5.356;2023-04-08T02:04:22;9.60;88.30
24618;DHT22;12762;51.730;5.356;2023-04-08T02:06:49;9.60;88.40
24618;DHT22;12762;51.730;5.356;2023-04-08T02:09:16;9.60;88.40
24618;DHT22;12762;51.730;5.356;2023-04-08T02:11:43;9.60;88.50
24618;DHT22;12762;51.730;5.356;2023-04-08T02:14:12;9.50;88.50
24618;DHT22;12762;51.730;5.356;2023-04-08T02:16:43;9.50;88.50
24618;DHT22;12762;51.730;5.356;2023-04-08T02:19:19;9.50;88.70
24618;DHT22;12762;51.730;5.356;2023-04-08T02:21:51;9.50;88.70
24618;DHT22;12762;51.730;5.356;2023-04-08T02:24:25;9.50;88.70
24618;DHT22;12762;51.730;5.356;2023-04-08T02:26:54;9.50;88.70
24618;DHT22;12762;51.730;5.356;2023-04-08T02:29:23;9.50;88.70
24618;DHT22;12762;51.730;5.356;2023-04-08T02:31:50;9.50;88.70
24618;DHT22;12762;51.730;5.356;2023-04-08T02:34:19;9.60;88.80
24618;DHT22;12762;51.730;5.356;2023-04-08T02:36:47;9.60;88.80
24618;DHT22;12762;51.730;5.356;2023-04-08T02:39:16;9.60;88.70
24618;DHT22;12762;51.730;5.356;2023-04-08T02:41:43;9.60;88.70
24618;DHT22;12762;51.730;5.356;2023-04-08T02:44:10;9.50;88.60
24618;DHT22;12762;51.730;5.356;2023-04-08T02:46:36;9.60;88.70
24618;DHT22;12762;51.730;5.356;2023-04-08T02:49:03;9.60;88.70
24618;DHT22;12762;51.730;5.356;2023-04-08T02:51:31;9.60;88.80
24618;DHT22;12762;51.730;5.356;2023-04-08T02:53:58;9.60;88.80
24618;DHT22;12762;51.730;5.356;2023-04-08T02:56:25;9.60;88.80
24618;DHT22;12762;51.730;5.356;2023-04-08T02:58:52;9.60;88.70
24618;DHT22;12762;51.730;5.356;2023-04-08T03:01:19;9.60;88.70
24618;DHT22;12762;51.730;5.356;2023-04-08T03:03:46;9.60;88.70
24618;DHT22;12762;51.730;5.356;2023-04-08T03:06:12;9.60;88.70
24618;DHT22;12762;51.730;5.356;2023-04-08T03:08:42;9.60;88.70
24618;DHT22;12762;51.730;5.356;2023-04-08T03:11:09;9.60;88.70
24618;DHT22;12762;51.730;5.356;2023-04-08T03:13:36;9.60;88.70
24618;DHT22;12762;51.730;5.356;2023-04-08T03:16:03;9.60;88.80
24618;DHT22;12762;51.730;5.356;2023-04-08T03:18:30;9.60;88.70
24618;DHT22;12762;51.730;5.356;2023-04-08T03:20:57;9.60;88.70
24618;DHT22;12762;51.730;5.356;2023-04-08T03:23:24;9.60;88.70
24618;DHT22;12762;51.730;5.356;2023-04-08T03:25:50;9.50;88.60
24618;DHT22;12762;51.730;5.356;2023-04-08T03:28:17;9.50;88.60
24618;DHT22;12762;51.730;5.356;2023-04-08T03:30:44;9.50;88.70
24618;DHT22;12762;51.730;5.356;2023-04-08T03:33:14;9.50;88.70
24618;DHT22;12762;51.730;5.356;2023-04-08T03:35:41;9.50;88.80
24618;DHT22;12762;51.730;5.356;2023-04-08T03:38:08;9.50;88.80
24618;DHT22;12762;51.730;5.356;2023-04-08T03:40:37;9.50;88.80
24618;DHT22;12762;51.730;5.356;2023-04-08T03:43:04;9.50;88.80
24618;DHT22;12762;51.730;5.356;2023-04-08T03:45:34;9.40;88.80
24618;DHT22;12762;51.730;5.356;2023-04-08T03:48:04;9.40;88.90
24618;DHT22;12762;51.730;5.356;2023-04-08T03:50:31;9.40;88.90
24618;DHT22;12762;51.730;5.356;2023-04-08T03:52:57;9.40;88.90
24618;DHT22;12762;51.730;5.356;2023-04-08T03:55:24;9.40;88.90
24618;DHT22;12762;51.730;5.356;2023-04-08T03:57:53;9.40;88.90
24618;DHT22;12762;51.730;5.356;2023-04-08T04:00:21;9.40;89.00
24618;DHT22;12762;51.730;5.356;2023-04-08T04:02:48;9.40;89.00
24618;DHT22;12762;51.730;5.356;2023-04-08T04:05:15;9.40;89.00
24618;DHT22;12762;51.730;5.356;2023-04-08T04:07:42;9.40;89.00
24618;DHT22;12762;51.730;5.356;2023-04-08T04:10:09;9.40;89.00
24618;DHT22;12762;51.730;5.356;2023-04-08T04:12:36;9.40;89.00
24618;DHT22;12762;51.730;5.356;2023-04-08T04:15:03;9.40;89.10
24618;DHT22;12762;51.730;5.356;2023-04-08T04:17:30;9.30;89.00
24618;DHT22;12762;51.730;5.356;2023-04-08T04:19:57;9.30;89.10
24618;DHT22;12762;51.730;5.356;2023-04-08T04:22:24;9.30;89.10
24618;DHT22;12762;51.730;5.356;2023-04-08T04:24:50;9.30;89.10
24618;DHT22;12762;51.730;5.356;2023-04-08T04:27:17;9.30;89.10
24618;DHT22;12762;51.730;5.356;2023-04-08T04:29:44;9.20;89.10
24618;DHT22;12762;51.730;5.356;2023-04-08T04:32:11;9.20;89.20
24618;DHT22;12762;51.730;5.356;2023-04-08T04:34:37;9.20;89.20
24618;DHT22;12762;51.730;5.356;2023-04-08T04:37:04;9.20;89.20
24618;DHT22;12762;51.730;5.356;2023-04-08T04:39:31;9.20;89.20
24618;DHT22;12762;51.730;5.356;2023-04-08T04:41:58;9.20;89.30
24618;DHT22;12762;51.730;5.356;2023-04-08T04:44:27;9.20;89.30
24618;DHT22;12762;51.730;5.356;2023-04-08T04:46:54;9.10;89.30
24618;DHT22;12762;51.730;5.356;2023-04-08T04:49:20;9.20;89.40
24618;DHT22;12762;51.730;5.356;2023-04-08T04:51:47;9.20;89.50
24618;DHT22;12762;51.730;5.356;2023-04-08T04:54:14;9.20;89.50
24618;DHT22;12762;51.730;5.356;2023-04-08T04:56:41;9.20;89.50
24618;DHT22;12762;51.730;5.356;2023-04-08T04:59:08;9.20;89.50
24618;DHT22;12762;51.730;5.356;2023-04-08T05:01:35;9.10;89.30
24618;DHT22;12762;51.730;5.356;2023-04-08T05:04:02;9.10;89.30
24618;DHT22;12762;51.730;5.356;2023-04-08T05:06:29;9.10;89.30
24618;DHT22;12762;51.730;5.356;2023-04-08T05:08:56;9.10;89.40
24618;DHT22;12762;51.730;5.356;2023-04-08T05:11:23;9.00;89.30
24618;DHT22;12762;51.730;5.356;2023-04-08T05:13:49;9.00;89.30
24618;DHT22;12762;51.730;5.356;2023-04-08T05:16:16;8.90;89.30
24618;DHT22;12762;51.730;5.356;2023-04-08T05:18:43;8.90;89.40
24618;DHT22;12762;51.730;5.356;2023-04-08T05:21:10;8.90;89.50
24618;DHT22;12762;51.730;5.356;2023-04-08T05:23:37;8.90;89.50
24618;DHT22;12762;51.730;5.356;2023-04-08T05:26:06;8.80;89.50
24618;DHT22;12762;51.730;5.356;2023-04-08T05:28:34;8.90;89.70
24618;DHT22;12762;51.730;5.356;2023-04-08T05:31:01;8.80;89.50
24618;DHT22;12762;51.730;5.356;2023-04-08T05:33:31;8.80;89.60
24618;DHT22;12762;51.730;5.356;2023-04-08T05:35:58;8.80;89.70
24618;DHT22;12762;51.730;5.356;2023-04-08T05:38:25;8.80;89.70
24618;DHT22;12762;51.730;5.356;2023-04-08T05:40:52;8.80;89.70
24618;DHT22;12762;51.730;5.356;2023-04-08T05:43:18;8.80;89.80
24618;DHT22;12762;51.730;5.356;2023-04-08T05:45:45;8.80;89.90
24618;DHT22;12762;51.730;5.356;2023-04-08T05:48:15;8.80;89.90
24618;DHT22;12762;51.730;5.356;2023-04-08T05:50:42;8.80;90.00
24618;DHT22;12762;51.730;5.356;2023-04-08T05:53:09;8.80;90.00
24618;DHT22;12762;51.730;5.356;2023-04-08T05:55:36;8.80;89.90
24618;DHT22;12762;51.730;5.356;2023-04-08T05:58:03;8.80;90.00
24618;DHT22;12762;51.730;5.356;2023-04-08T06:00:29;8.80;89.90
24618;DHT22;12762;51.730;5.356;2023-04-08T06:03:00;8.70;89.80
24618;DHT22;12762;51.730;5.356;2023-04-08T06:05:27;8.70;89.80
24618;DHT22;12762;51.730;5.356;2023-04-08T06:07:54;8.70;89.80
24618;DHT22;12762;51.730;5.356;2023-04-08T06:10:21;8.70;89.80
24618;DHT22;12762;51.730;5.356;2023-04-08T06:12:47;8.60;89.70
24618;DHT22;12762;51.730;5.356;2023-04-08T06:15:16;8.60;89.60
24618;DHT22;12762;51.730;5.356;2023-04-08T06:17:43;8.60;89.60
24618;DHT22;12762;51.730;5.356;2023-04-08T06:20:13;8.50;89.60
24618;DHT22;12762;51.730;5.356;2023-04-08T06:22:42;8.50;89.70
24618;DHT22;12762;51.730;5.356;2023-04-08T06:25:09;8.50;89.70
24618;DHT22;12762;51.730;5.356;2023-04-08T06:27:39;8.50;89.70
24618;DHT22;12762;51.730;5.356;2023-04-08T06:30:06;8.50;89.80
24618;DHT22;12762;51.730;5.356;2023-04-08T06:32:33;8.50;89.80
24618;DHT22;12762;51.730;5.356;2023-04-08T06:35:00;8.50;89.80
24618;DHT22;12762;51.730;5.356;2023-04-08T06:37:27;8.50;89.90
24618;DHT22;12762;51.730;5.356;2023-04-08T06:39:54;8.50;90.00
24618;DHT22;12762;51.730;5.356;2023-04-08T06:42:20;8.50;90.00
24618;DHT22;12762;51.730;5.356;2023-04-08T06:44:48;8.50;90.00
24618;DHT22;12762;51.730;5.356;2023-04-08T06:47:15;8.50;90.00
24618;DHT22;12762;51.730;5.356;2023-04-08T06:49:42;8.60;90.10
24618;DHT22;12762;51.730;5.356;2023-04-08T06:52:09;8.60;90.10
24618;DHT22;12762;51.730;5.356;2023-04-08T06:54:38;8.70;90.10
24618;DHT22;12762;51.730;5.356;2023-04-08T06:57:05;8.70;90.10
24618;DHT22;12762;51.730;5.356;2023-04-08T06:59:32;8.70;90.00
24618;DHT22;12762;51.730;5.356;2023-04-08T07:01:59;8.70;90.00
24618;DHT22;12762;51.730;5.356;2023-04-08T07:04:27;8.80;90.10
24618;DHT22;12762;51.730;5.356;2023-04-08T07:06:53;8.80;90.10
24618;DHT22;12762;51.730;5.356;2023-04-08T07:09:20;8.80;90.10
24618;DHT22;12762;51.730;5.356;2023-04-08T07:11:47;8.80;90.00
24618;DHT22;12762;51.730;5.356;2023-04-08T07:14:14;8.90;90.10
24618;DHT22;12762;51.730;5.356;2023-04-08T07:16:41;8.90;90.10
24618;DHT22;12762;51.730;5.356;2023-04-08T07:19:08;8.90;90.10
24618;DHT22;12762;51.730;5.356;2023-04-08T07:21:38;8.90;90.10
24618;DHT22;12762;51.730;5.356;2023-04-08T07:24:04;8.90;90.00
24618;DHT22;12762;51.730;5.356;2023-04-08T07:26:31;8.90;90.10
24618;DHT22;12762;51.730;5.356;2023-04-08T07:29:00;9.00;90.10
24618;DHT22;12762;51.730;5.356;2023-04-08T07:31:27;9.00;90.10
24618;DHT22;12762;51.730;5.356;2023-04-08T07:33:54;9.00;90.00
24618;DHT22;12762;51.730;5.356;2023-04-08T07:36:21;9.00;90.10
24618;DHT22;12762;51.730;5.356;2023-04-08T07:38:48;9.00;90.00
24618;DHT22;12762;51.730;5.356;2023-04-08T07:41:18;9.10;90.10
24618;DHT22;12762;51.730;5.356;2023-04-08T07:43:45;9.10;90.10
24618;DHT22;12762;51.730;5.356;2023-04-08T07:46:14;9.20;90.10
24618;DHT22;12762;51.730;5.356;2023-04-08T07:48:41;9.20;90.00
24618;DHT22;12762;51.730;5.356;2023-04-08T07:51:08;9.20;90.00
24618;DHT22;12762;51.730;5.356;2023-04-08T07:53:37;9.30;90.00
24618;DHT22;12762;51.730;5.356;2023-04-08T07:56:15;9.30;90.00
24618;DHT22;12762;51.730;5.356;2023-04-08T07:58:45;9.30;90.00
24618;DHT22;12762;51.730;5.356;2023-04-08T08:01:16;9.30;90.00
24618;DHT22;12762;51.730;5.356;2023-04-08T08:03:44;9.40;90.00
24618;DHT22;12762;51.730;5.356;2023-04-08T08:06:14;9.40;90.00
24618;DHT22;12762;51.730;5.356;2023-04-08T08:08:40;9.40;89.90
24618;DHT22;12762;51.730;5.356;2023-04-08T08:11:07;9.50;89.90
24618;DHT22;12762;51.730;5.356;2023-04-08T08:13:34;9.50;89.90
24618;DHT22;12762;51.730;5.356;2023-04-08T08:16:04;9.60;89.80
24618;DHT22;12762;51.730;5.356;2023-04-08T08:18:34;9.60;89.70
24618;DHT22;12762;51.730;5.356;2023-04-08T08:21:02;9.70;89.90
24618;DHT22;12762;51.730;5.356;2023-04-08T08:23:29;9.70;89.70
24618;DHT22;12762;51.730;5.356;2023-04-08T08:26:03;9.60;89.40
24618;DHT22;12762;51.730;5.356;2023-04-08T08:28:32;9.70;89.70
24618;DHT22;12762;51.730;5.356;2023-04-08T08:30:59;9.70;89.70
24618;DHT22;12762;51.730;5.356;2023-04-08T08:33:27;9.80;89.80
24618;DHT22;12762;51.730;5.356;2023-04-08T08:35:54;9.90;89.80
24618;DHT22;12762;51.730;5.356;2023-04-08T08:38:21;9.90;89.70
24618;DHT22;12762;51.730;5.356;2023-04-08T08:40:56;10.00;88.50
24618;DHT22;12762;51.730;5.356;2023-04-08T08:43:26;10.00;88.20
24618;DHT22;12762;51.730;5.356;2023-04-08T08:45:54;10.10;88.40
24618;DHT22;12762;51.730;5.356;2023-04-08T08:48:21;10.10;88.50
24618;DHT22;12762;51.730;5.356;2023-04-08T08:50:50;10.20;88.50
24618;DHT22;12762;51.730;5.356;2023-04-08T08:53:17;10.30;88.50
24618;DHT22;12762;51.730;5.356;2023-04-08T08:55:45;10.30;88.40
24618;DHT22;12762;51.730;5.356;2023-04-08T08:58:32;10.40;88.30
24618;DHT22;12762;51.730;5.356;2023-04-08T09:00:58;10.40;88.00
24618;DHT22;12762;51.730;5.356;2023-04-08T09:03:26;10.50;88.00
24618;DHT22;12762;51.730;5.356;2023-04-08T09:05:59;10.40;87.80
24618;DHT22;12762;51.730;5.356;2023-04-08T09:11:20;10.50;87.80
24618;DHT22;12762;51.730;5.356;2023-04-08T09:13:47;10.50;87.80
24618;DHT22;12762;51.730;5.356;2023-04-08T09:16:17;10.50;88.60
24618;DHT22;12762;51.730;5.356;2023-04-08T09:18:45;10.60;87.80
24618;DHT22;12762;51.730;5.356;2023-04-08T09:21:15;10.60;87.80
24618;DHT22;12762;51.730;5.356;2023-04-08T09:23:51;10.60;87.50
24618;DHT22;12762;51.730;5.356;2023-04-08T09:26:22;10.70;87.60
24618;DHT22;12762;51.730;5.356;2023-04-08T09:29:05;10.80;87.70
24618;DHT22;12762;51.730;5.356;2023-04-08T09:31:58;10.80;87.60
24618;DHT22;12762;51.730;5.356;2023-04-08T09:34:27;10.90;87.50
24618;DHT22;12762;51.730;5.356;2023-04-08T09:36:55;11.00;87.40
24618;DHT22;12762;51.730;5.356;2023-04-08T09:39:22;11.00;87.10
24618;DHT22;12762;51.730;5.356;2023-04-08T09:41:50;11.00;86.80
24618;DHT22;12762;51.730;5.356;2023-04-08T09:44:19;11.10;87.10
24618;DHT22;12762;51.730;5.356;2023-04-08T09:49:26;11.20;87.00
24618;DHT22;12762;51.730;5.356;2023-04-08T09:52:29;11.40;87.30
24618;DHT22;12762;51.730;5.356;2023-04-08T09:57:36;11.80;87.10
24618;DHT22;12762;51.730;5.356;2023-04-08T10:00:14;12.00;86.80
24618;DHT22;12762;51.730;5.356;2023-04-08T10:03:09;12.20;86.40
24618;DHT22;12762;51.730;5.356;2023-04-08T10:05:41;12.30;86.20
24618;DHT22;12762;51.730;5.356;2023-04-08T10:08:09;12.40;86.00
24618;DHT22;12762;51.730;5.356;2023-04-08T10:10:38;12.50;85.80
24618;DHT22;12762;51.730;5.356;2023-04-08T10:13:06;12.50;86.00
24618;DHT22;12762;51.730;5.356;2023-04-08T10:15:34;12.50;85.30
24618;DHT22;12762;51.730;5.356;2023-04-08T10:23:11;13.00;84.80
24618;DHT22;12762;51.730;5.356;2023-04-08T10:25:48;13.00;84.30
24618;DHT22;12762;51.730;5.356;2023-04-08T10:30:51;13.30;84.60
24618;DHT22;12762;51.730;5.356;2023-04-08T10:36:10;13.90;84.70
24618;DHT22;12762;51.730;5.356;2023-04-08T10:38:38;14.40;85.00
24618;DHT22;12762;51.730;5.356;2023-04-08T10:41:05;14.60;83.40
24618;DHT22;12762;51.730;5.356;2023-04-08T10:43:35;14.80;82.70
24618;DHT22;12762;51.730;5.356;2023-04-08T10:46:02;15.00;82.60
24618;DHT22;12762;51.730;5.356;2023-04-08T10:48:30;15.20;82.10
24618;DHT22;12762;51.730;5.356;2023-04-08T10:50:59;15.30;81.60
24618;DHT22;12762;51.730;5.356;2023-04-08T10:53:29;15.50;81.00
24618;DHT22;12762;51.730;5.356;2023-04-08T10:56:13;15.50;80.20
24618;DHT22;12762;51.730;5.356;2023-04-08T10:58:54;15.70;80.60
24618;DHT22;12762;51.730;5.356;2023-04-08T11:01:24;15.80;79.60
24618;DHT22;12762;51.730;5.356;2023-04-08T11:03:52;15.90;79.90
24618;DHT22;12762;51.730;5.356;2023-04-08T11:06:19;16.10;79.50
24618;DHT22;12762;51.730;5.356;2023-04-08T11:08:46;16.30;79.20
24618;DHT22;12762;51.730;5.356;2023-04-08T11:11:13;16.50;78.60
24618;DHT22;12762;51.730;5.356;2023-04-08T11:13:43;16.70;78.10
24618;DHT22;12762;51.730;5.356;2023-04-08T11:16:20;16.80;77.10
24618;DHT22;12762;51.730;5.356;2023-04-08T11:18:49;16.90;77.10
24618;DHT22;12762;51.730;5.356;2023-04-08T11:21:16;17.00;76.40
24618;DHT22;12762;51.730;5.356;2023-04-08T11:23:43;17.10;76.00
24618;DHT22;12762;51.730;5.356;2023-04-08T11:26:10;17.20;75.80
24618;DHT22;12762;51.730;5.356;2023-04-08T11:28:37;17.30;75.50
24618;DHT22;12762;51.730;5.356;2023-04-08T11:31:04;17.50;75.60
24618;DHT22;12762;51.730;5.356;2023-04-08T11:33:34;17.80;74.90
24618;DHT22;12762;51.730;5.356;2023-04-08T11:36:02;17.90;74.80
24618;DHT22;12762;51.730;5.356;2023-04-08T11:38:38;18.20;73.90
24618;DHT22;12762;51.730;5.356;2023-04-08T11:41:06;18.20;73.40
24618;DHT22;12762;51.730;5.356;2023-04-08T11:43:33;18.40;73.40
24618;DHT22;12762;51.730;5.356;2023-04-08T11:46:11;18.40;72.80
24618;DHT22;12762;51.730;5.356;2023-04-08T11:48:38;18.60;72.70
24618;DHT22;12762;51.730;5.356;2023-04-08T11:51:06;18.70;72.50
24618;DHT22;12762;51.730;5.356;2023-04-08T11:53:35;18.80;71.70
24618;DHT22;12762;51.730;5.356;2023-04-08T11:56:20;18.90;71.60
24618;DHT22;12762;51.730;5.356;2023-04-08T11:58:48;19.00;71.60
24618;DHT22;12762;51.730;5.356;2023-04-08T12:01:15;19.10;72.10
24618;DHT22;12762;51.730;5.356;2023-04-08T12:04:02;19.20;70.40
24618;DHT22;12762;51.730;5.356;2023-04-08T12:06:29;19.40;70.70
24618;DHT22;12762;51.730;5.356;2023-04-08T12:08:57;19.50;70.10
24618;DHT22;12762;51.730;5.356;2023-04-08T12:11:25;19.60;69.00
24618;DHT22;12762;51.730;5.356;2023-04-08T12:13:52;19.60;68.90
24618;DHT22;12762;51.730;5.356;2023-04-08T12:16:19;19.70;68.60
24618;DHT22;12762;51.730;5.356;2023-04-08T12:18:46;19.80;68.30
24618;DHT22;12762;51.730;5.356;2023-04-08T12:21:13;19.90;68.20
24618;DHT22;12762;51.730;5.356;2023-04-08T12:23:41;20.10;67.80
24618;DHT22;12762;51.730;5.356;2023-04-08T12:26:08;20.20;67.20
24618;DHT22;12762;51.730;5.356;2023-04-08T12:28:35;20.30;66.30
24618;DHT22;12762;51.730;5.356;2023-04-08T12:31:02;20.30;66.10
24618;DHT22;12762;51.730;5.356;2023-04-08T12:33:29;20.40;65.80
24618;DHT22;12762;51.730;5.356;2023-04-08T12:35:57;20.60;65.60
24618;DHT22;12762;51.730;5.356;2023-04-08T12:38:24;20.70;65.30
24618;DHT22;12762;51.730;5.356;2023-04-08T12:40:53;20.70;65.00
24618;DHT22;12762;51.730;5.356;2023-04-08T12:43:20;20.80;64.50
24618;DHT22;12762;51.730;5.356;2023-04-08T12:45:47;20.90;63.80
24618;DHT22;12762;51.730;5.356;2023-04-08T12:48:14;20.90;63.40
24618;DHT22;12762;51.730;5.356;2023-04-08T12:50:41;21.00;62.80
24618;DHT22;12762;51.730;5.356;2023-04-08T12:53:08;21.00;62.50
24618;DHT22;12762;51.730;5.356;2023-04-08T12:55:35;21.10;62.60
24618;DHT22;12762;51.730;5.356;2023-04-08T12:58:01;21.20;62.10
24618;DHT22;12762;51.730;5.356;2023-04-08T13:00:28;21.20;61.70
24618;DHT22;12762;51.730;5.356;2023-04-08T13:02:55;21.10;61.40
24618;DHT22;12762;51.730;5.356;2023-04-08T13:05:22;21.00;60.30
24618;DHT22;12762;51.730;5.356;2023-04-08T13:08:08;20.80;59.90
24618;DHT22;12762;51.730;5.356;2023-04-08T13:10:35;20.60;59.80
24618;DHT22;12762;51.730;5.356;2023-04-08T13:13:02;20.40;59.80
24618;DHT22;12762;51.730;5.356;2023-04-08T13:15:29;20.30;59.80
24618;DHT22;12762;51.730;5.356;2023-04-08T13:17:56;20.20;59.90
24618;DHT22;12762;51.730;5.356;2023-04-08T13:20:22;20.20;59.90
24618;DHT22;12762;51.730;5.356;2023-04-08T13:22:52;20.00;59.30
24618;DHT22;12762;51.730;5.356;2023-04-08T13:25:18;19.90;59.10
24618;DHT22;12762;51.730;5.356;2023-04-08T13:27:46;19.80;58.90
24618;DHT22;12762;51.730;5.356;2023-04-08T13:30:18;19.80;58.60
24618;DHT22;12762;51.730;5.356;2023-04-08T13:32:46;19.70;58.00
24618;DHT22;12762;51.730;5.356;2023-04-08T13:35:16;19.60;58.00
24618;DHT22;12762;51.730;5.356;2023-04-08T13:37:42;19.50;57.40
24618;DHT22;12762;51.730;5.356;2023-04-08T13:40:09;19.40;57.50
24618;DHT22;12762;51.730;5.356;2023-04-08T13:42:37;19.30;57.20
24618;DHT22;12762;51.730;5.356;2023-04-08T13:45:05;19.20;56.90
24618;DHT22;12762;51.730;5.356;2023-04-08T13:47:32;19.10;56.80
24618;DHT22;12762;51.730;5.356;2023-04-08T13:50:01;19.00;56.80
24618;DHT22;12762;51.730;5.356;2023-04-08T13:52:28;19.10;56.80
24618;DHT22;12762;51.730;5.356;2023-04-08T13:54:54;19.00;56.90
24618;DHT22;12762;51.730;5.356;2023-04-08T13:57:21;19.00;56.90
24618;DHT22;12762;51.730;5.356;2023-04-08T13:59:48;19.10;56.70
24618;DHT22;12762;51.730;5.356;2023-04-08T14:02:15;19.10;56.50
24618;DHT22;12762;51.730;5.356;2023-04-08T14:04:42;19.10;56.30
24618;DHT22;12762;51.730;5.356;2023-04-08T14:07:12;19.10;55.90
24618;DHT22;12762;51.730;5.356;2023-04-08T14:09:51;19.00;55.50
24618;DHT22;12762;51.730;5.356;2023-04-08T14:12:18;19.10;55.60
24618;DHT22;12762;51.730;5.356;2023-04-08T14:14:44;19.20;55.80
24618;DHT22;12762;51.730;5.356;2023-04-08T14:17:11;19.30;55.30
24618;DHT22;12762;51.730;5.356;2023-04-08T14:19:38;19.40;54.30
24618;DHT22;12762;51.730;5.356;2023-04-08T14:22:05;19.50;54.90
24618;DHT22;12762;51.730;5.356;2023-04-08T14:24:38;19.60;54.80
24618;DHT22;12762;51.730;5.356;2023-04-08T14:27:05;19.70;54.10
24618;DHT22;12762;51.730;5.356;2023-04-08T14:29:32;19.70;54.20
24618;DHT22;12762;51.730;5.356;2023-04-08T14:31:59;19.80;54.00
24618;DHT22;12762;51.730;5.356;2023-04-08T14:34:25;19.80;53.50
24618;DHT22;12762;51.730;5.356;2023-04-08T14:36:53;19.90;53.30
24618;DHT22;12762;51.730;5.356;2023-04-08T14:39:19;19.90;53.20
24618;DHT22;12762;51.730;5.356;2023-04-08T14:41:47;19.90;52.70
24618;DHT22;12762;51.730;5.356;2023-04-08T14:44:13;19.90;52.80
24618;DHT22;12762;51.730;5.356;2023-04-08T14:46:40;19.90;52.70
24618;DHT22;12762;51.730;5.356;2023-04-08T14:49:07;20.00;52.70
24618;DHT22;12762;51.730;5.356;2023-04-08T14:51:34;20.00;52.20
24618;DHT22;12762;51.730;5.356;2023-04-08T14:54:03;20.00;52.40
24618;DHT22;12762;51.730;5.356;2023-04-08T14:56:30;19.90;52.30
24618;DHT22;12762;51.730;5.356;2023-04-08T14:58:57;19.90;52.30
24618;DHT22;12762;51.730;5.356;2023-04-08T15:01:24;19.90;52.20
24618;DHT22;12762;51.730;5.356;2023-04-08T15:03:51;20.00;52.50
24618;DHT22;12762;51.730;5.356;2023-04-08T15:06:17;20.10;52.50
24618;DHT22;12762;51.730;5.356;2023-04-08T15:08:49;20.20;52.60
24618;DHT22;12762;51.730;5.356;2023-04-08T15:11:16;20.30;53.00
24618;DHT22;12762;51.730;5.356;2023-04-08T15:13:47;20.30;52.00
24618;DHT22;12762;51.730;5.356;2023-04-08T15:16:14;20.40;52.00
24618;DHT22;12762;51.730;5.356;2023-04-08T15:18:44;20.30;51.90
24618;DHT22;12762;51.730;5.356;2023-04-08T15:21:11;20.40;52.30
24618;DHT22;12762;51.730;5.356;2023-04-08T15:23:38;20.40;52.20
24618;DHT22;12762;51.730;5.356;2023-04-08T15:26:08;20.60;52.60
24618;DHT22;12762;51.730;5.356;2023-04-08T15:28:35;20.70;52.20
24618;DHT22;12762;51.730;5.356;2023-04-08T15:31:06;20.80;51.80
24618;DHT22;12762;51.730;5.356;2023-04-08T15:33:33;20.70;51.50
24618;DHT22;12762;51.730;5.356;2023-04-08T15:36:00;20.70;51.60
24618;DHT22;12762;51.730;5.356;2023-04-08T15:38:30;20.60;51.50
24618;DHT22;12762;51.730;5.356;2023-04-08T15:40:59;20.60;51.90
24618;DHT22;12762;51.730;5.356;2023-04-08T15:43:29;20.60;52.00
24618;DHT22;12762;51.730;5.356;2023-04-08T15:45:57;20.60;52.20
24618;DHT22;12762;51.730;5.356;2023-04-08T15:48:26;20.50;52.10
24618;DHT22;12762;51.730;5.356;2023-04-08T15:50:56;20.50;52.10
24618;DHT22;12762;51.730;5.356;2023-04-08T15:53:23;20.40;52.00
24618;DHT22;12762;51.730;5.356;2023-04-08T15:55:50;20.40;52.10
24618;DHT22;12762;51.730;5.356;2023-04-08T15:58:17;20.30;52.10
24618;DHT22;12762;51.730;5.356;2023-04-08T16:00:43;20.10;52.10
24618;DHT22;12762;51.730;5.356;2023-04-08T16:03:10;20.00;52.60
24618;DHT22;12762;51.730;5.356;2023-04-08T16:05:38;20.00;52.60
24618;DHT22;12762;51.730;5.356;2023-04-08T16:08:07;19.90;52.70